sensor_id;sensor_type;location;lat;lon;timestamp;P1;durP1;ratioP1;P2;durP2;ratioP2
77400;SDS011;66855;45.414;11.082;2023-04-03T00:00:33;2.60;;;1.00;;
77400;SDS011;66855;45.414;11.082;2023-04-03T00:02:59;1.50;;;1.20;;
77400;SDS011;66855;45.414;11.082;2023-04-03T00:05:26;1.70;;;1.10;;
77400;SDS011;66855;45.414;11.082;2023-04-03T00:07:52;1.10;;;0.80;;
77400;SDS011;66855;45.414;11.082;2023-04-03T00:10:18;1.10;;;0.70;;
77400;SDS011;66855;45.414;11.082;2023-04-03T00:12:44;3.20;;;0.90;;
77400;SDS011;66855;45.414;11.082;2023-04-03T00:15:10;3.70;;;0.90;;
77400;SDS011;66855;45.414;11.082;2023-04-03T00:17:36;1.30;;;0.70;;
77400;SDS011;66855;45.414;11.082;2023-04-03T00:20:03;0.90;;;0.60;;
77400;SDS011;66855;45.414;11.082;2023-04-03T00:22:30;1.70;;;0.70;;
77400;SDS011;66855;45.414;11.082;2023-04-03T00:24:56;1.20;;;0.60;;
77400;SDS011;66855;45.414;11.082;2023-04-03T00:27:22;0.90;;;0.40;;
77400;SDS011;66855;45.414;11.082;2023-04-03T00:29:48;1.20;;;0.30;;
77400;SDS011;66855;45.414;11.082;2023-04-03T00:32:15;0.60;;;0.30;;
77400;SDS011;66855;45.414;11.082;2023-04-03T00:34:41;1.00;;;0.40;;
77400;SDS011;66855;45.414;11.082;2023-04-03T00:37:07;0.90;;;0.30;;
77400;SDS011;66855;45.414;11.082;2023-04-03T00:39:33;1.10;;;0.40;;
77400;SDS011;66855;45.414;11.082;2023-04-03T00:41:59;1.60;;;0.40;;
77400;SDS011;66855;45.414;11.082;2023-04-03T00:47:01;2.90;;;0.50;;
77400;SDS011;66855;45.414;11.082;2023-04-03T00:49:29;0.30;;;0.30;;
77400;SDS011;66855;45.414;11.082;2023-04-03T00:51:55;0.40;;;0.20;;
77400;SDS011;66855;45.414;11.082;2023-04-03T00:54:23;1.30;;;0.30;;
77400;SDS011;66855;45.414;11.082;2023-04-03T00:56:50;0.50;;;0.30;;
77400;SDS011;66855;45.414;11.082;2023-04-03T00:59:18;0.30;;;0.20;;
77400;SDS011;66855;45.414;11.082;2023-04-03T01:01:48;0.80;;;0.30;;
77400;SDS011;66855;45.414;11.082;2023-04-03T01:07:04;1.20;;;0.20;;
77400;SDS011;66855;45.414;11.082;2023-04-03T01:09:33;1.50;;;0.40;;
77400;SDS011;66855;45.414;11.082;2023-04-03T01:12:19;0.80;;;0.50;;
77400;SDS011;66855;45.414;11.082;2023-04-03T01:15:02;0.70;;;0.40;;
77400;SDS011;66855;45.414;11.082;2023-04-03T01:17:41;2.00;;;0.50;;
77400;SDS011;66855;45.414;11.082;2023-04-03T01:22:56;1.90;;;0.60;;
77400;SDS011;66855;45.414;11.082;2023-04-03T01:25:26;1.20;;;0.60;;
77400;SDS011;66855;45.414;11.082;2023-04-03T01:27:52;1.00;;;0.60;;
77400;SDS011;66855;45.414;11.082;2023-04-03T01:30:19;1.30;;;0.60;;
77400;SDS011;66855;45.414;11.082;2023-04-03T01:32:47;1.00;;;0.70;;
77400;SDS011;66855;45.414;11.082;2023-04-03T01:35:13;1.50;;;0.50;;
77400;SDS011;66855;45.414;11.082;2023-04-03T01:37:39;0.90;;;0.60;;
77400;SDS011;66855;45.414;11.082;2023-04-03T01:40:05;1.90;;;0.50;;
77400;SDS011;66855;45.414;11.082;2023-04-03T01:42:32;0.90;;;0.70;;
77400;SDS011;66855;45.414;11.082;2023-04-03T01:44:58;0.80;;;0.50;;
77400;SDS011;66855;45.414;11.082;2023-04-03T01:47:25;2.10;;;0.70;;
77400;SDS011;66855;45.414;11.082;2023-04-03T01:49:51;1.00;;;0.50;;
77400;SDS011;66855;45.414;11.082;2023-04-03T01:52:17;1.40;;;0.60;;
77400;SDS011;66855;45.414;11.082;2023-04-03T01:54:43;1.90;;;0.70;;
77400;SDS011;66855;45.414;11.082;2023-04-03T01:57:09;1.40;;;0.50;;
77400;SDS011;66855;45.414;11.082;2023-04-03T01:59:36;0.90;;;0.70;;
77400;SDS011;66855;45.414;11.082;2023-04-03T02:02:02;0.70;;;0.50;;
77400;SDS011;66855;45.414;11.082;2023-04-03T02:04:28;1.70;;;0.40;;
77400;SDS011;66855;45.414;11.082;2023-04-03T02:06:54;0.90;;;0.60;;
77400;SDS011;66855;45.414;11.082;2023-04-03T02:09:20;2.50;;;0.40;;
77400;SDS011;66855;45.414;11.082;2023-04-03T02:11:47;0.50;;;0.40;;
77400;SDS011;66855;45.414;11.082;2023-04-03T02:14:13;0.50;;;0.30;;
77400;SDS011;66855;45.414;11.082;2023-04-03T02:16:39;1.60;;;0.30;;
77400;SDS011;66855;45.414;11.082;2023-04-03T02:19:05;0.30;;;0.30;;
77400;SDS011;66855;45.414;11.082;2023-04-03T02:21:31;1.00;;;0.50;;
77400;SDS011;66855;45.414;11.082;2023-04-03T02:23:57;1.70;;;0.40;;
77400;SDS011;66855;45.414;11.082;2023-04-03T02:26:23;0.60;;;0.40;;
77400;SDS011;66855;45.414;11.082;2023-04-03T02:28:49;0.60;;;0.50;;
77400;SDS011;66855;45.414;11.082;2023-04-03T02:31:15;2.10;;;0.80;;
77400;SDS011;66855;45.414;11.082;2023-04-03T02:33:42;1.20;;;0.40;;
77400;SDS011;66855;45.414;11.082;2023-04-03T02:36:09;1.70;;;0.60;;
77400;SDS011;66855;45.414;11.082;2023-04-03T02:38:36;0.50;;;0.50;;
77400;SDS011;66855;45.414;11.082;2023-04-03T02:41:07;0.80;;;0.30;;
77400;SDS011;66855;45.414;11.082;2023-04-03T02:43:34;1.80;;;0.50;;
77400;SDS011;66855;45.414;11.082;2023-04-03T02:46:00;0.70;;;0.50;;
77400;SDS011;66855;45.414;11.082;2023-04-03T02:48:26;0.50;;;0.50;;
77400;SDS011;66855;45.414;11.082;2023-04-03T02:50:53;1.30;;;0.70;;
77400;SDS011;66855;45.414;11.082;2023-04-03T02:53:20;1.90;;;0.70;;
77400;SDS011;66855;45.414;11.082;2023-04-03T02:55:47;2.10;;;0.70;;
77400;SDS011;66855;45.414;11.082;2023-04-03T02:58:13;1.70;;;0.80;;
77400;SDS011;66855;45.414;11.082;2023-04-03T03:00:40;1.90;;;1.00;;
77400;SDS011;66855;45.414;11.082;2023-04-03T03:03:06;0.80;;;0.80;;
77400;SDS011;66855;45.414;11.082;2023-04-03T03:05:33;1.80;;;1.30;;
77400;SDS011;66855;45.414;11.082;2023-04-03T03:07:59;1.80;;;1.40;;
77400;SDS011;66855;45.414;11.082;2023-04-03T03:10:25;2.40;;;1.40;;
77400;SDS011;66855;45.414;11.082;2023-04-03T03:12:51;2.50;;;1.30;;
77400;SDS011;66855;45.414;11.082;2023-04-03T03:15:18;6.40;;;1.50;;
77400;SDS011;66855;45.414;11.082;2023-04-03T03:17:45;2.90;;;1.50;;
77400;SDS011;66855;45.414;11.082;2023-04-03T03:20:11;1.30;;;1.10;;
77400;SDS011;66855;45.414;11.082;2023-04-03T03:22:39;2.00;;;1.40;;
77400;SDS011;66855;45.414;11.082;2023-04-03T03:25:06;2.10;;;1.40;;
77400;SDS011;66855;45.414;11.082;2023-04-03T03:27:32;1.80;;;1.40;;
77400;SDS011;66855;45.414;11.082;2023-04-03T03:29:58;3.40;;;1.90;;
77400;SDS011;66855;45.414;11.082;2023-04-03T03:32:24;2.90;;;1.60;;
77400;SDS011;66855;45.414;11.082;2023-04-03T03:34:51;3.20;;;1.20;;
77400;SDS011;66855;45.414;11.082;2023-04-03T03:37:17;2.50;;;1.40;;
77400;SDS011;66855;45.414;11.082;2023-04-03T03:39:43;2.70;;;1.40;;
77400;SDS011;66855;45.414;11.082;2023-04-03T03:42:09;2.30;;;1.20;;
77400;SDS011;66855;45.414;11.082;2023-04-03T03:44:35;2.30;;;1.40;;
77400;SDS011;66855;45.414;11.082;2023-04-03T03:47:01;2.70;;;1.30;;
77400;SDS011;66855;45.414;11.082;2023-04-03T03:49:28;2.70;;;1.20;;
77400;SDS011;66855;45.414;11.082;2023-04-03T03:51:54;2.60;;;1.20;;
77400;SDS011;66855;45.414;11.082;2023-04-03T03:54:21;2.40;;;1.30;;
77400;SDS011;66855;45.414;11.082;2023-04-03T03:56:47;2.00;;;1.20;;
77400;SDS011;66855;45.414;11.082;2023-04-03T03:59:13;2.60;;;1.40;;
77400;SDS011;66855;45.414;11.082;2023-04-03T04:01:40;2.40;;;1.20;;
77400;SDS011;66855;45.414;11.082;2023-04-03T04:04:06;2.10;;;1.20;;
77400;SDS011;66855;45.414;11.082;2023-04-03T04:06:32;1.90;;;1.20;;
77400;SDS011;66855;45.414;11.082;2023-04-03T04:09:01;2.30;;;1.10;;
77400;SDS011;66855;45.414;11.082;2023-04-03T04:11:28;1.40;;;0.90;;
77400;SDS011;66855;45.414;11.082;2023-04-03T04:13:54;2.40;;;0.90;;
77400;SDS011;66855;45.414;11.082;2023-04-03T04:16:23;1.60;;;0.90;;
77400;SDS011;66855;45.414;11.082;2023-04-03T04:18:49;1.10;;;0.90;;
77400;SDS011;66855;45.414;11.082;2023-04-03T04:21:16;1.10;;;0.70;;
77400;SDS011;66855;45.414;11.082;2023-04-03T04:23:43;1.40;;;0.80;;
77400;SDS011;66855;45.414;11.082;2023-04-03T04:26:09;1.20;;;0.60;;
77400;SDS011;66855;45.414;11.082;2023-04-03T04:28:35;1.70;;;0.60;;
77400;SDS011;66855;45.414;11.082;2023-04-03T04:31:02;1.70;;;0.70;;
77400;SDS011;66855;45.414;11.082;2023-04-03T04:33:28;2.20;;;0.60;;
77400;SDS011;66855;45.414;11.082;2023-04-03T04:35:56;1.30;;;0.60;;
77400;SDS011;66855;45.414;11.082;2023-04-03T04:38:23;0.90;;;0.60;;
77400;SDS011;66855;45.414;11.082;2023-04-03T04:40:50;1.90;;;0.90;;
77400;SDS011;66855;45.414;11.082;2023-04-03T04:43:16;1.60;;;0.60;;
77400;SDS011;66855;45.414;11.082;2023-04-03T04:45:44;1.40;;;0.60;;
77400;SDS011;66855;45.414;11.082;2023-04-03T04:48:11;1.70;;;0.60;;
77400;SDS011;66855;45.414;11.082;2023-04-03T04:50:37;1.70;;;0.60;;
77400;SDS011;66855;45.414;11.082;2023-04-03T04:53:04;1.20;;;0.50;;
77400;SDS011;66855;45.414;11.082;2023-04-03T04:55:30;0.90;;;0.60;;
77400;SDS011;66855;45.414;11.082;2023-04-03T04:57:56;1.10;;;0.50;;
77400;SDS011;66855;45.414;11.082;2023-04-03T05:00:22;1.30;;;0.40;;
77400;SDS011;66855;45.414;11.082;2023-04-03T05:02:49;2.40;;;1.50;;
77400;SDS011;66855;45.414;11.082;2023-04-03T05:05:17;1.90;;;0.90;;
77400;SDS011;66855;45.414;11.082;2023-04-03T05:07:43;2.80;;;1.00;;
77400;SDS011;66855;45.414;11.082;2023-04-03T05:10:09;1.10;;;0.90;;
77400;SDS011;66855;45.414;11.082;2023-04-03T05:12:36;1.90;;;1.00;;
77400;SDS011;66855;45.414;11.082;2023-04-03T05:15:03;3.50;;;1.30;;
77400;SDS011;66855;45.414;11.082;2023-04-03T05:17:29;3.20;;;1.20;;
77400;SDS011;66855;45.414;11.082;2023-04-03T05:19:55;2.10;;;1.40;;
77400;SDS011;66855;45.414;11.082;2023-04-03T05:22:22;2.40;;;1.50;;
77400;SDS011;66855;45.414;11.082;2023-04-03T05:24:49;6.90;;;1.30;;
77400;SDS011;66855;45.414;11.082;2023-04-03T05:27:15;1.20;;;0.70;;
77400;SDS011;66855;45.414;11.082;2023-04-03T05:29:44;1.20;;;0.90;;
77400;SDS011;66855;45.414;11.082;2023-04-03T05:32:13;1.80;;;1.00;;
77400;SDS011;66855;45.414;11.082;2023-04-03T05:34:39;2.20;;;0.90;;
77400;SDS011;66855;45.414;11.082;2023-04-03T05:37:08;2.40;;;1.00;;
77400;SDS011;66855;45.414;11.082;2023-04-03T05:39:35;3.40;;;0.70;;
77400;SDS011;66855;45.414;11.082;2023-04-03T05:42:02;2.30;;;0.80;;
77400;SDS011;66855;45.414;11.082;2023-04-03T05:44:29;1.30;;;0.70;;
77400;SDS011;66855;45.414;11.082;2023-04-03T05:46:55;1.20;;;0.80;;
77400;SDS011;66855;45.414;11.082;2023-04-03T05:49:21;1.60;;;0.80;;
77400;SDS011;66855;45.414;11.082;2023-04-03T05:51:47;2.40;;;1.00;;
77400;SDS011;66855;45.414;11.082;2023-04-03T05:54:22;1.60;;;0.70;;
77400;SDS011;66855;45.414;11.082;2023-04-03T05:56:52;2.80;;;0.70;;
77400;SDS011;66855;45.414;11.082;2023-04-03T05:59:20;1.40;;;0.60;;
77400;SDS011;66855;45.414;11.082;2023-04-03T06:01:48;1.10;;;0.60;;
77400;SDS011;66855;45.414;11.082;2023-04-03T06:04:14;2.00;;;0.90;;
77400;SDS011;66855;45.414;11.082;2023-04-03T06:09:14;2.20;;;0.90;;
77400;SDS011;66855;45.414;11.082;2023-04-03T06:11:41;2.00;;;0.70;;
77400;SDS011;66855;45.414;11.082;2023-04-03T06:14:08;2.60;;;1.00;;
77400;SDS011;66855;45.414;11.082;2023-04-03T06:16:34;2.30;;;1.00;;
77400;SDS011;66855;45.414;11.082;2023-04-03T06:19:07;3.80;;;1.00;;
77400;SDS011;66855;45.414;11.082;2023-04-03T06:21:34;2.60;;;1.00;;
77400;SDS011;66855;45.414;11.082;2023-04-03T06:24:02;4.20;;;1.10;;
77400;SDS011;66855;45.414;11.082;2023-04-03T06:26:31;2.00;;;0.90;;
77400;SDS011;66855;45.414;11.082;2023-04-03T06:28:57;2.50;;;1.00;;
77400;SDS011;66855;45.414;11.082;2023-04-03T06:31:23;2.20;;;1.00;;
77400;SDS011;66855;45.414;11.082;2023-04-03T06:33:50;3.40;;;0.70;;
77400;SDS011;66855;45.414;11.082;2023-04-03T06:36:18;3.60;;;0.90;;
77400;SDS011;66855;45.414;11.082;2023-04-03T06:38:47;2.60;;;0.90;;
77400;SDS011;66855;45.414;11.082;2023-04-03T06:41:14;2.20;;;0.80;;
77400;SDS011;66855;45.414;11.082;2023-04-03T06:43:42;3.40;;;0.70;;
77400;SDS011;66855;45.414;11.082;2023-04-03T06:46:15;3.10;;;1.00;;
77400;SDS011;66855;45.414;11.082;2023-04-03T06:48:42;1.70;;;0.70;;
77400;SDS011;66855;45.414;11.082;2023-04-03T06:51:19;1.00;;;0.50;;
77400;SDS011;66855;45.414;11.082;2023-04-03T06:53:49;3.90;;;0.90;;
77400;SDS011;66855;45.414;11.082;2023-04-03T06:56:16;2.60;;;0.90;;
77400;SDS011;66855;45.414;11.082;2023-04-03T06:58:43;1.70;;;0.60;;
77400;SDS011;66855;45.414;11.082;2023-04-03T07:01:11;2.60;;;0.90;;
77400;SDS011;66855;45.414;11.082;2023-04-03T07:03:39;2.20;;;0.80;;
77400;SDS011;66855;45.414;11.082;2023-04-03T07:06:06;2.40;;;0.90;;
77400;SDS011;66855;45.414;11.082;2023-04-03T07:08:35;3.50;;;0.70;;
77400;SDS011;66855;45.414;11.082;2023-04-03T07:11:01;3.30;;;0.90;;
77400;SDS011;66855;45.414;11.082;2023-04-03T07:13:28;2.90;;;0.90;;
77400;SDS011;66855;45.414;11.082;2023-04-03T07:15:54;1.60;;;0.70;;
77400;SDS011;66855;45.414;11.082;2023-04-03T07:18:20;3.20;;;1.00;;
77400;SDS011;66855;45.414;11.082;2023-04-03T07:20:47;2.90;;;1.30;;
77400;SDS011;66855;45.414;11.082;2023-04-03T07:23:13;2.60;;;1.00;;
77400;SDS011;66855;45.414;11.082;2023-04-03T07:25:46;3.10;;;1.00;;
77400;SDS011;66855;45.414;11.082;2023-04-03T07:28:13;4.60;;;1.50;;
77400;SDS011;66855;45.414;11.082;2023-04-03T07:30:50;3.60;;;0.90;;
77400;SDS011;66855;45.414;11.082;2023-04-03T07:33:19;3.00;;;1.00;;
77400;SDS011;66855;45.414;11.082;2023-04-03T07:35:46;6.10;;;1.90;;
77400;SDS011;66855;45.414;11.082;2023-04-03T07:38:13;3.90;;;1.50;;
77400;SDS011;66855;45.414;11.082;2023-04-03T07:40:39;5.50;;;1.20;;
77400;SDS011;66855;45.414;11.082;2023-04-03T07:43:06;4.40;;;1.20;;
77400;SDS011;66855;45.414;11.082;2023-04-03T07:45:34;3.60;;;1.20;;
77400;SDS011;66855;45.414;11.082;2023-04-03T07:48:01;2.40;;;1.10;;
77400;SDS011;66855;45.414;11.082;2023-04-03T07:50:28;3.20;;;1.20;;
77400;SDS011;66855;45.414;11.082;2023-04-03T07:52:55;2.00;;;1.10;;
77400;SDS011;66855;45.414;11.082;2023-04-03T07:55:24;2.50;;;1.20;;
77400;SDS011;66855;45.414;11.082;2023-04-03T07:57:51;5.80;;;1.20;;
77400;SDS011;66855;45.414;11.082;2023-04-03T08:00:17;4.70;;;1.00;;
77400;SDS011;66855;45.414;11.082;2023-04-03T08:02:45;1.30;;;0.70;;
77400;SDS011;66855;45.414;11.082;2023-04-03T08:05:17;3.90;;;1.00;;
77400;SDS011;66855;45.414;11.082;2023-04-03T08:07:43;4.80;;;1.00;;
77400;SDS011;66855;45.414;11.082;2023-04-03T08:10:12;4.50;;;1.00;;
77400;SDS011;66855;45.414;11.082;2023-04-03T08:12:38;3.30;;;1.00;;
77400;SDS011;66855;45.414;11.082;2023-04-03T08:15:05;2.90;;;1.10;;
77400;SDS011;66855;45.414;11.082;2023-04-03T08:17:36;3.40;;;1.20;;
77400;SDS011;66855;45.414;11.082;2023-04-03T08:20:04;5.30;;;1.20;;
77400;SDS011;66855;45.414;11.082;2023-04-03T08:22:32;3.00;;;1.20;;
77400;SDS011;66855;45.414;11.082;2023-04-03T08:24:59;2.60;;;1.10;;
77400;SDS011;66855;45.414;11.082;2023-04-03T08:27:25;2.60;;;1.20;;
77400;SDS011;66855;45.414;11.082;2023-04-03T08:29:54;2.30;;;1.10;;
77400;SDS011;66855;45.414;11.082;2023-04-03T08:32:21;4.00;;;1.60;;
77400;SDS011;66855;45.414;11.082;2023-04-03T08:34:49;3.70;;;1.40;;
77400;SDS011;66855;45.414;11.082;2023-04-03T08:37:15;4.80;;;1.20;;
77400;SDS011;66855;45.414;11.082;2023-04-03T08:39:44;2.90;;;1.20;;
77400;SDS011;66855;45.414;11.082;2023-04-03T08:42:14;3.90;;;1.10;;
77400;SDS011;66855;45.414;11.082;2023-04-03T08:44:48;4.00;;;1.40;;
77400;SDS011;66855;45.414;11.082;2023-04-03T08:50:28;2.40;;;1.30;;
77400;SDS011;66855;45.414;11.082;2023-04-03T08:53:01;5.10;;;1.20;;
77400;SDS011;66855;45.414;11.082;2023-04-03T08:55:34;5.00;;;1.40;;
77400;SDS011;66855;45.414;11.082;2023-04-03T09:03:54;4.30;;;1.30;;
77400;SDS011;66855;45.414;11.082;2023-04-03T09:06:21;2.80;;;1.20;;
77400;SDS011;66855;45.414;11.082;2023-04-03T09:08:51;3.10;;;1.20;;
77400;SDS011;66855;45.414;11.082;2023-04-03T09:11:26;4.50;;;1.30;;
77400;SDS011;66855;45.414;11.082;2023-04-03T09:14:02;4.30;;;0.90;;
77400;SDS011;66855;45.414;11.082;2023-04-03T09:21:41;3.00;;;1.10;;
77400;SDS011;66855;45.414;11.082;2023-04-03T09:24:09;1.70;;;1.10;;
77400;SDS011;66855;45.414;11.082;2023-04-03T09:26:42;2.90;;;1.10;;
77400;SDS011;66855;45.414;11.082;2023-04-03T09:29:14;4.00;;;1.40;;
77400;SDS011;66855;45.414;11.082;2023-04-03T09:31:44;3.20;;;1.30;;
77400;SDS011;66855;45.414;11.082;2023-04-03T09:36:51;1.70;;;0.90;;
77400;SDS011;66855;45.414;11.082;2023-04-03T09:39:19;3.90;;;1.30;;
77400;SDS011;66855;45.414;11.082;2023-04-03T09:44:23;4.10;;;1.10;;
77400;SDS011;66855;45.414;11.082;2023-04-03T09:46:51;3.30;;;1.10;;
77400;SDS011;66855;45.414;11.082;2023-04-03T09:49:17;4.50;;;1.30;;
77400;SDS011;66855;45.414;11.082;2023-04-03T09:51:44;3.10;;;1.20;;
77400;SDS011;66855;45.414;11.082;2023-04-03T09:57:07;6.00;;;2.60;;
77400;SDS011;66855;45.414;11.082;2023-04-03T09:59:39;2.80;;;1.10;;
77400;SDS011;66855;45.414;11.082;2023-04-03T10:04:50;4.80;;;1.20;;
77400;SDS011;66855;45.414;11.082;2023-04-03T10:07:35;4.30;;;1.10;;
77400;SDS011;66855;45.414;11.082;2023-04-03T10:12:42;4.60;;;1.10;;
77400;SDS011;66855;45.414;11.082;2023-04-03T10:15:17;3.60;;;1.10;;
77400;SDS011;66855;45.414;11.082;2023-04-03T10:18:06;3.70;;;1.30;;
77400;SDS011;66855;45.414;11.082;2023-04-03T10:20:56;5.00;;;1.20;;
77400;SDS011;66855;45.414;11.082;2023-04-03T10:31:36;3.30;;;1.10;;
77400;SDS011;66855;45.414;11.082;2023-04-03T10:42:53;3.20;;;1.30;;
77400;SDS011;66855;45.414;11.082;2023-04-03T10:50:38;5.80;;;1.80;;
77400;SDS011;66855;45.414;11.082;2023-04-03T10:53:24;3.20;;;1.40;;
77400;SDS011;66855;45.414;11.082;2023-04-03T10:56:19;5.70;;;1.40;;
77400;SDS011;66855;45.414;11.082;2023-04-03T10:58:52;8.10;;;1.50;;
77400;SDS011;66855;45.414;11.082;2023-04-03T11:01:21;4.60;;;1.30;;
77400;SDS011;66855;45.414;11.082;2023-04-03T11:03:52;2.90;;;1.00;;
77400;SDS011;66855;45.414;11.082;2023-04-03T11:06:19;6.90;;;1.60;;
77400;SDS011;66855;45.414;11.082;2023-04-03T11:09:02;3.90;;;1.50;;
77400;SDS011;66855;45.414;11.082;2023-04-03T11:11:35;3.10;;;1.40;;
77400;SDS011;66855;45.414;11.082;2023-04-03T11:16:59;6.40;;;1.30;;
77400;SDS011;66855;45.414;11.082;2023-04-03T11:19:39;4.60;;;1.60;;
77400;SDS011;66855;45.414;11.082;2023-04-03T11:22:16;3.50;;;1.50;;
77400;SDS011;66855;45.414;11.082;2023-04-03T11:24:55;3.40;;;1.20;;
77400;SDS011;66855;45.414;11.082;2023-04-03T11:27:25;3.50;;;1.50;;
77400;SDS011;66855;45.414;11.082;2023-04-03T11:29:52;3.80;;;1.40;;
77400;SDS011;66855;45.414;11.082;2023-04-03T11:32:35;4.80;;;1.30;;
77400;SDS011;66855;45.414;11.082;2023-04-03T11:35:12;4.70;;;1.40;;
77400;SDS011;66855;45.414;11.082;2023-04-03T11:37:45;17.60;;;2.30;;
77400;SDS011;66855;45.414;11.082;2023-04-03T11:42:52;8.00;;;1.40;;
77400;SDS011;66855;45.414;11.082;2023-04-03T11:50:52;7.80;;;1.60;;
77400;SDS011;66855;45.414;11.082;2023-04-03T11:53:27;7.30;;;1.60;;
77400;SDS011;66855;45.414;11.082;2023-04-03T11:59:14;3.90;;;1.20;;
77400;SDS011;66855;45.414;11.082;2023-04-03T12:01:45;13.00;;;2.00;;
77400;SDS011;66855;45.414;11.082;2023-04-03T12:04:17;6.80;;;1.30;;
77400;SDS011;66855;45.414;11.082;2023-04-03T12:11:57;6.70;;;1.60;;
77400;SDS011;66855;45.414;11.082;2023-04-03T12:14:25;5.30;;;1.90;;
77400;SDS011;66855;45.414;11.082;2023-04-03T12:16:54;3.00;;;1.10;;
77400;SDS011;66855;45.414;11.082;2023-04-03T12:19:37;3.60;;;1.30;;
77400;SDS011;66855;45.414;11.082;2023-04-03T12:22:13;4.10;;;1.20;;
77400;SDS011;66855;45.414;11.082;2023-04-03T12:24:44;3.70;;;1.50;;
77400;SDS011;66855;45.414;11.082;2023-04-03T12:29:59;3.80;;;1.50;;
77400;SDS011;66855;45.414;11.082;2023-04-03T12:46:17;5.70;;;1.50;;
77400;SDS011;66855;45.414;11.082;2023-04-03T12:51:53;4.50;;;1.60;;
77400;SDS011;66855;45.414;11.082;2023-04-03T12:54:14;7.70;;;2.00;;
77400;SDS011;66855;45.414;11.082;2023-04-03T12:56:45;3.10;;;1.60;;
77400;SDS011;66855;45.414;11.082;2023-04-03T13:01:41;6.30;;;1.40;;
77400;SDS011;66855;45.414;11.082;2023-04-03T13:04:07;7.50;;;1.80;;
77400;SDS011;66855;45.414;11.082;2023-04-03T13:06:38;4.60;;;2.20;;
77400;SDS011;66855;45.414;11.082;2023-04-03T13:09:06;4.10;;;1.60;;
77400;SDS011;66855;45.414;11.082;2023-04-03T13:11:47;6.30;;;1.30;;
77400;SDS011;66855;45.414;11.082;2023-04-03T13:16:55;5.90;;;1.60;;
77400;SDS011;66855;45.414;11.082;2023-04-03T13:19:30;4.70;;;1.60;;
77400;SDS011;66855;45.414;11.082;2023-04-03T13:22:01;4.40;;;1.50;;
77400;SDS011;66855;45.414;11.082;2023-04-03T13:24:30;6.10;;;1.60;;
77400;SDS011;66855;45.414;11.082;2023-04-03T13:29:27;3.30;;;1.50;;
77400;SDS011;66855;45.414;11.082;2023-04-03T13:31:58;6.50;;;1.90;;
77400;SDS011;66855;45.414;11.082;2023-04-03T13:34:26;4.60;;;1.60;;
77400;SDS011;66855;45.414;11.082;2023-04-03T13:36:58;7.50;;;2.20;;
77400;SDS011;66855;45.414;11.082;2023-04-03T13:39:27;3.50;;;1.40;;
77400;SDS011;66855;45.414;11.082;2023-04-03T13:42:00;7.50;;;2.20;;
77400;SDS011;66855;45.414;11.082;2023-04-03T13:44:41;3.20;;;1.50;;
77400;SDS011;66855;45.414;11.082;2023-04-03T13:49:46;10.10;;;2.60;;
77400;SDS011;66855;45.414;11.082;2023-04-03T13:58:02;5.50;;;1.50;;
77400;SDS011;66855;45.414;11.082;2023-04-03T14:00:50;4.20;;;1.50;;
77400;SDS011;66855;45.414;11.082;2023-04-03T14:03:28;6.20;;;1.50;;
77400;SDS011;66855;45.414;11.082;2023-04-03T14:05:58;4.50;;;1.70;;
77400;SDS011;66855;45.414;11.082;2023-04-03T14:08:25;6.80;;;1.80;;
77400;SDS011;66855;45.414;11.082;2023-04-03T14:11:14;3.10;;;1.40;;
77400;SDS011;66855;45.414;11.082;2023-04-03T14:13:43;7.30;;;1.90;;
77400;SDS011;66855;45.414;11.082;2023-04-03T14:16:12;6.50;;;1.70;;
77400;SDS011;66855;45.414;11.082;2023-04-03T14:18:42;5.40;;;1.60;;
77400;SDS011;66855;45.414;11.082;2023-04-03T14:21:13;4.80;;;1.70;;
77400;SDS011;66855;45.414;11.082;2023-04-03T14:23:40;7.60;;;2.50;;
77400;SDS011;66855;45.414;11.082;2023-04-03T14:26:14;5.40;;;1.90;;
77400;SDS011;66855;45.414;11.082;2023-04-03T14:28:44;6.00;;;1.80;;
77400;SDS011;66855;45.414;11.082;2023-04-03T14:31:11;7.10;;;1.80;;
77400;SDS011;66855;45.414;11.082;2023-04-03T14:33:38;4.90;;;1.70;;
77400;SDS011;66855;45.414;11.082;2023-04-03T14:36:41;3.80;;;1.70;;
77400;SDS011;66855;45.414;11.082;2023-04-03T14:39:02;6.40;;;1.70;;
77400;SDS011;66855;45.414;11.082;2023-04-03T14:41:30;6.80;;;2.00;;
77400;SDS011;66855;45.414;11.082;2023-04-03T14:43:56;4.70;;;1.60;;
77400;SDS011;66855;45.414;11.082;2023-04-03T14:46:26;2.70;;;1.50;;
77400;SDS011;66855;45.414;11.082;2023-04-03T14:49:15;5.30;;;1.50;;
77400;SDS011;66855;45.414;11.082;2023-04-03T14:51:44;5.70;;;1.80;;
77400;SDS011;66855;45.414;11.082;2023-04-03T14:54:15;5.70;;;1.60;;
77400;SDS011;66855;45.414;11.082;2023-04-03T14:56:44;4.80;;;1.80;;
77400;SDS011;66855;45.414;11.082;2023-04-03T14:59:11;8.00;;;1.60;;
77400;SDS011;66855;45.414;11.082;2023-04-03T15:01:38;6.00;;;1.40;;
77400;SDS011;66855;45.414;11.082;2023-04-03T15:04:12;7.10;;;1.40;;
77400;SDS011;66855;45.414;11.082;2023-04-03T15:06:45;5.10;;;1.60;;
77400;SDS011;66855;45.414;11.082;2023-04-03T15:09:23;2.90;;;1.30;;
77400;SDS011;66855;45.414;11.082;2023-04-03T15:11:52;9.10;;;1.90;;
77400;SDS011;66855;45.414;11.082;2023-04-03T15:14:18;6.20;;;1.80;;
77400;SDS011;66855;45.414;11.082;2023-04-03T15:17:06;7.30;;;1.50;;
77400;SDS011;66855;45.414;11.082;2023-04-03T15:19:36;5.80;;;1.70;;
77400;SDS011;66855;45.414;11.082;2023-04-03T15:22:03;7.20;;;1.90;;
77400;SDS011;66855;45.414;11.082;2023-04-03T15:24:29;3.10;;;1.80;;
77400;SDS011;66855;45.414;11.082;2023-04-03T15:26:55;2.60;;;1.40;;
77400;SDS011;66855;45.414;11.082;2023-04-03T15:29:21;3.20;;;1.50;;
77400;SDS011;66855;45.414;11.082;2023-04-03T15:31:47;6.00;;;1.60;;
77400;SDS011;66855;45.414;11.082;2023-04-03T15:34:15;6.60;;;1.50;;
77400;SDS011;66855;45.414;11.082;2023-04-03T15:36:47;3.60;;;1.40;;
77400;SDS011;66855;45.414;11.082;2023-04-03T15:39:13;5.20;;;1.50;;
77400;SDS011;66855;45.414;11.082;2023-04-03T15:41:39;4.10;;;1.50;;
77400;SDS011;66855;45.414;11.082;2023-04-03T15:44:05;2.10;;;1.30;;
77400;SDS011;66855;45.414;11.082;2023-04-03T15:46:32;8.00;;;1.60;;
77400;SDS011;66855;45.414;11.082;2023-04-03T15:48:58;5.00;;;1.40;;
77400;SDS011;66855;45.414;11.082;2023-04-03T15:51:24;9.20;;;1.90;;
77400;SDS011;66855;45.414;11.082;2023-04-03T15:53:51;6.90;;;1.30;;
77400;SDS011;66855;45.414;11.082;2023-04-03T15:56:18;4.70;;;1.20;;
77400;SDS011;66855;45.414;11.082;2023-04-03T15:58:44;3.20;;;1.20;;
77400;SDS011;66855;45.414;11.082;2023-04-03T16:01:11;6.50;;;1.40;;
77400;SDS011;66855;45.414;11.082;2023-04-03T16:03:38;4.00;;;1.70;;
77400;SDS011;66855;45.414;11.082;2023-04-03T16:06:11;3.50;;;1.50;;
77400;SDS011;66855;45.414;11.082;2023-04-03T16:08:39;3.30;;;1.10;;
77400;SDS011;66855;45.414;11.082;2023-04-03T16:11:06;3.30;;;1.40;;
77400;SDS011;66855;45.414;11.082;2023-04-03T16:13:33;3.10;;;1.40;;
77400;SDS011;66855;45.414;11.082;2023-04-03T16:16:01;2.70;;;1.20;;
77400;SDS011;66855;45.414;11.082;2023-04-03T16:18:28;4.40;;;1.20;;
77400;SDS011;66855;45.414;11.082;2023-04-03T16:20:54;5.70;;;1.30;;
77400;SDS011;66855;45.414;11.082;2023-04-03T16:23:21;5.00;;;1.80;;
77400;SDS011;66855;45.414;11.082;2023-04-03T16:25:48;6.00;;;2.40;;
77400;SDS011;66855;45.414;11.082;2023-04-03T16:28:15;2.90;;;1.60;;
77400;SDS011;66855;45.414;11.082;2023-04-03T16:30:43;2.90;;;1.00;;
77400;SDS011;66855;45.414;11.082;2023-04-03T16:33:11;3.40;;;1.10;;
77400;SDS011;66855;45.414;11.082;2023-04-03T16:35:38;3.70;;;1.20;;
77400;SDS011;66855;45.414;11.082;2023-04-03T16:38:06;8.80;;;1.90;;